sensor_id;sensor_type;location;lat;lon;timestamp;P1;durP1;ratioP1;P2;durP2;ratioP2
43150;SDS011;28755;51.478;5.702;2023-10-08T00:02:26;10.07;;;4.43;;
43150;SDS011;28755;51.478;5.702;2023-10-08T00:04:53;12.82;;;4.88;;
43150;SDS011;28755;51.478;5.702;2023-10-08T00:07:21;12.02;;;4.57;;
43150;SDS011;28755;51.478;5.702;2023-10-08T00:09:50;11.05;;;4.65;;
43150;SDS011;28755;51.478;5.702;2023-10-08T00:12:16;11.93;;;4.50;;
43150;SDS011;28755;51.478;5.702;2023-10-08T00:14:42;9.30;;;4.47;;
43150;SDS011;28755;51.478;5.702;2023-10-08T00:17:14;13.85;;;4.97;;
43150;SDS011;28755;51.478;5.702;2023-10-08T00:19:41;9.52;;;4.82;;
43150;SDS011;28755;51.478;5.702;2023-10-08T00:22:08;14.25;;;5.20;;
43150;SDS011;28755;51.478;5.702;2023-10-08T00:24:36;10.30;;;4.32;;
43150;SDS011;28755;51.478;5.702;2023-10-08T00:27:05;10.90;;;5.25;;
43150;SDS011;28755;51.478;5.702;2023-10-08T00:29:31;10.38;;;4.68;;
43150;SDS011;28755;51.478;5.702;2023-10-08T00:31:57;12.80;;;4.80;;
43150;SDS011;28755;51.478;5.702;2023-10-08T00:34:23;12.13;;;4.63;;
43150;SDS011;28755;51.478;5.702;2023-10-08T00:36:50;13.10;;;5.07;;
43150;SDS011;28755;51.478;5.702;2023-10-08T00:39:16;13.18;;;4.57;;
43150;SDS011;28755;51.478;5.702;2023-10-08T00:41:48;11.35;;;4.97;;
43150;SDS011;28755;51.478;5.702;2023-10-08T00:44:15;12.95;;;4.35;;
43150;SDS011;28755;51.478;5.702;2023-10-08T00:46:47;10.57;;;4.95;;
43150;SDS011;28755;51.478;5.702;2023-10-08T00:49:16;14.52;;;4.55;;
43150;SDS011;28755;51.478;5.702;2023-10-08T00:51:57;10.93;;;4.68;;
43150;SDS011;28755;51.478;5.702;2023-10-08T00:54:37;13.85;;;5.15;;
43150;SDS011;28755;51.478;5.702;2023-10-08T00:57:24;16.02;;;5.18;;
43150;SDS011;28755;51.478;5.702;2023-10-08T00:59:51;13.98;;;5.22;;
43150;SDS011;28755;51.478;5.702;2023-10-08T01:02:21;10.47;;;4.93;;
43150;SDS011;28755;51.478;5.702;2023-10-08T01:04:52;12.50;;;5.07;;
43150;SDS011;28755;51.478;5.702;2023-10-08T01:07:19;13.43;;;4.80;;
43150;SDS011;28755;51.478;5.702;2023-10-08T01:09:45;12.82;;;5.30;;
43150;SDS011;28755;51.478;5.702;2023-10-08T01:12:23;15.43;;;6.05;;
43150;SDS011;28755;51.478;5.702;2023-10-08T01:14:53;12.60;;;5.32;;
43150;SDS011;28755;51.478;5.702;2023-10-08T01:17:19;16.73;;;5.22;;
43150;SDS011;28755;51.478;5.702;2023-10-08T01:19:50;14.05;;;4.82;;
43150;SDS011;28755;51.478;5.702;2023-10-08T01:22:21;19.58;;;5.00;;
43150;SDS011;28755;51.478;5.702;2023-10-08T01:24:47;15.50;;;5.28;;
43150;SDS011;28755;51.478;5.702;2023-10-08T01:27:16;10.85;;;4.90;;
43150;SDS011;28755;51.478;5.702;2023-10-08T01:29:49;17.60;;;5.25;;
43150;SDS011;28755;51.478;5.702;2023-10-08T01:32:17;11.02;;;4.93;;
43150;SDS011;28755;51.478;5.702;2023-10-08T01:34:44;13.95;;;5.00;;
43150;SDS011;28755;51.478;5.702;2023-10-08T01:37:12;9.65;;;5.25;;
43150;SDS011;28755;51.478;5.702;2023-10-08T01:39:42;11.88;;;4.72;;
43150;SDS011;28755;51.478;5.702;2023-10-08T01:42:11;12.80;;;5.30;;
43150;SDS011;28755;51.478;5.702;2023-10-08T01:44:45;13.57;;;5.25;;
43150;SDS011;28755;51.478;5.702;2023-10-08T01:47:16;12.05;;;4.95;;
43150;SDS011;28755;51.478;5.702;2023-10-08T01:49:42;9.80;;;4.63;;
43150;SDS011;28755;51.478;5.702;2023-10-08T01:52:14;16.08;;;5.18;;
43150;SDS011;28755;51.478;5.702;2023-10-08T01:54:46;11.90;;;4.80;;
43150;SDS011;28755;51.478;5.702;2023-10-08T01:57:13;11.25;;;4.75;;
43150;SDS011;28755;51.478;5.702;2023-10-08T01:59:39;13.20;;;5.40;;
43150;SDS011;28755;51.478;5.702;2023-10-08T02:02:05;13.52;;;5.20;;
43150;SDS011;28755;51.478;5.702;2023-10-08T02:04:32;15.38;;;5.40;;
43150;SDS011;28755;51.478;5.702;2023-10-08T02:07:00;9.75;;;5.32;;
43150;SDS011;28755;51.478;5.702;2023-10-08T02:09:26;13.90;;;4.85;;
43150;SDS011;28755;51.478;5.702;2023-10-08T02:11:52;16.70;;;5.43;;
43150;SDS011;28755;51.478;5.702;2023-10-08T02:14:20;10.38;;;4.82;;
43150;SDS011;28755;51.478;5.702;2023-10-08T02:16:47;11.73;;;5.35;;
43150;SDS011;28755;51.478;5.702;2023-10-08T02:19:13;15.10;;;4.97;;
43150;SDS011;28755;51.478;5.702;2023-10-08T02:21:43;19.67;;;5.28;;
43150;SDS011;28755;51.478;5.702;2023-10-08T02:24:11;13.48;;;5.35;;
43150;SDS011;28755;51.478;5.702;2023-10-08T02:26:38;10.68;;;4.90;;
43150;SDS011;28755;51.478;5.702;2023-10-08T02:29:04;12.48;;;4.72;;
43150;SDS011;28755;51.478;5.702;2023-10-08T02:31:36;12.50;;;4.47;;
43150;SDS011;28755;51.478;5.702;2023-10-08T02:34:05;10.85;;;5.10;;
43150;SDS011;28755;51.478;5.702;2023-10-08T02:36:35;15.55;;;4.85;;
43150;SDS011;28755;51.478;5.702;2023-10-08T02:39:05;12.93;;;4.70;;
43150;SDS011;28755;51.478;5.702;2023-10-08T02:41:52;14.48;;;5.15;;
43150;SDS011;28755;51.478;5.702;2023-10-08T02:44:21;10.87;;;4.87;;
43150;SDS011;28755;51.478;5.702;2023-10-08T02:46:48;11.07;;;4.32;;
43150;SDS011;28755;51.478;5.702;2023-10-08T02:49:18;17.85;;;5.28;;
43150;SDS011;28755;51.478;5.702;2023-10-08T02:51:50;11.98;;;4.90;;
43150;SDS011;28755;51.478;5.702;2023-10-08T02:54:17;11.57;;;4.53;;
43150;SDS011;28755;51.478;5.702;2023-10-08T02:56:47;13.23;;;4.63;;
43150;SDS011;28755;51.478;5.702;2023-10-08T02:59:16;13.70;;;4.40;;
43150;SDS011;28755;51.478;5.702;2023-10-08T03:01:43;13.30;;;5.00;;
43150;SDS011;28755;51.478;5.702;2023-10-08T03:04:09;10.80;;;4.95;;
43150;SDS011;28755;51.478;5.702;2023-10-08T03:06:47;14.00;;;5.43;;
43150;SDS011;28755;51.478;5.702;2023-10-08T03:09:15;10.80;;;4.80;;
43150;SDS011;28755;51.478;5.702;2023-10-08T03:11:46;12.93;;;4.43;;
43150;SDS011;28755;51.478;5.702;2023-10-08T03:14:13;15.38;;;4.68;;
43150;SDS011;28755;51.478;5.702;2023-10-08T03:16:46;10.85;;;4.80;;
43150;SDS011;28755;51.478;5.702;2023-10-08T03:19:14;15.30;;;4.57;;
43150;SDS011;28755;51.478;5.702;2023-10-08T03:21:43;12.50;;;4.68;;
43150;SDS011;28755;51.478;5.702;2023-10-08T03:24:15;11.85;;;4.82;;
43150;SDS011;28755;51.478;5.702;2023-10-08T03:26:54;15.05;;;4.68;;
43150;SDS011;28755;51.478;5.702;2023-10-08T03:29:30;11.93;;;5.00;;
43150;SDS011;28755;51.478;5.702;2023-10-08T03:31:56;14.60;;;4.88;;
43150;SDS011;28755;51.478;5.702;2023-10-08T03:34:22;9.63;;;4.65;;
43150;SDS011;28755;51.478;5.702;2023-10-08T03:36:52;13.80;;;5.05;;
43150;SDS011;28755;51.478;5.702;2023-10-08T03:39:24;12.48;;;4.72;;
43150;SDS011;28755;51.478;5.702;2023-10-08T03:42:06;12.15;;;4.75;;
43150;SDS011;28755;51.478;5.702;2023-10-08T03:44:34;11.50;;;4.38;;
43150;SDS011;28755;51.478;5.702;2023-10-08T03:47:02;10.38;;;4.70;;
43150;SDS011;28755;51.478;5.702;2023-10-08T03:49:35;9.70;;;4.90;;
43150;SDS011;28755;51.478;5.702;2023-10-08T03:52:06;10.70;;;4.88;;
43150;SDS011;28755;51.478;5.702;2023-10-08T03:54:32;13.63;;;4.78;;
43150;SDS011;28755;51.478;5.702;2023-10-08T03:57:03;11.30;;;4.57;;
43150;SDS011;28755;51.478;5.702;2023-10-08T03:59:30;11.30;;;4.55;;
43150;SDS011;28755;51.478;5.702;2023-10-08T04:01:56;10.98;;;4.53;;
43150;SDS011;28755;51.478;5.702;2023-10-08T04:04:35;10.77;;;4.82;;
43150;SDS011;28755;51.478;5.702;2023-10-08T04:07:20;13.55;;;4.88;;
43150;SDS011;28755;51.478;5.702;2023-10-08T04:09:59;12.37;;;5.00;;
43150;SDS011;28755;51.478;5.702;2023-10-08T04:12:34;13.30;;;4.80;;
43150;SDS011;28755;51.478;5.702;2023-10-08T04:15:04;11.80;;;4.97;;
43150;SDS011;28755;51.478;5.702;2023-10-08T04:17:33;11.63;;;4.90;;
43150;SDS011;28755;51.478;5.702;2023-10-08T04:20:08;12.27;;;4.40;;
43150;SDS011;28755;51.478;5.702;2023-10-08T04:22:55;10.00;;;4.38;;
43150;SDS011;28755;51.478;5.702;2023-10-08T04:25:24;11.98;;;5.00;;
43150;SDS011;28755;51.478;5.702;2023-10-08T04:27:56;11.43;;;4.43;;
43150;SDS011;28755;51.478;5.702;2023-10-08T04:30:34;12.35;;;4.43;;
43150;SDS011;28755;51.478;5.702;2023-10-08T04:33:05;13.45;;;4.43;;
43150;SDS011;28755;51.478;5.702;2023-10-08T04:35:36;13.55;;;4.90;;
43150;SDS011;28755;51.478;5.702;2023-10-08T04:38:26;12.30;;;4.88;;
43150;SDS011;28755;51.478;5.702;2023-10-08T04:40:53;12.10;;;4.25;;
43150;SDS011;28755;51.478;5.702;2023-10-08T04:43:20;17.40;;;5.32;;
43150;SDS011;28755;51.478;5.702;2023-10-08T04:45:59;11.20;;;4.03;;
43150;SDS011;28755;51.478;5.702;2023-10-08T04:48:43;11.40;;;4.80;;
43150;SDS011;28755;51.478;5.702;2023-10-08T04:51:10;12.82;;;4.97;;
43150;SDS011;28755;51.478;5.702;2023-10-08T04:53:37;11.32;;;5.10;;
43150;SDS011;28755;51.478;5.702;2023-10-08T04:56:06;12.48;;;4.97;;
43150;SDS011;28755;51.478;5.702;2023-10-08T04:58:42;13.80;;;5.28;;
43150;SDS011;28755;51.478;5.702;2023-10-08T05:01:11;15.43;;;4.80;;
43150;SDS011;28755;51.478;5.702;2023-10-08T05:03:44;11.48;;;4.55;;
43150;SDS011;28755;51.478;5.702;2023-10-08T05:06:33;14.65;;;5.05;;
43150;SDS011;28755;51.478;5.702;2023-10-08T05:09:11;11.30;;;4.97;;
43150;SDS011;28755;51.478;5.702;2023-10-08T05:11:44;10.05;;;5.25;;
43150;SDS011;28755;51.478;5.702;2023-10-08T05:14:31;14.00;;;5.78;;
43150;SDS011;28755;51.478;5.702;2023-10-08T05:16:57;14.25;;;4.72;;
43150;SDS011;28755;51.478;5.702;2023-10-08T05:19:35;12.27;;;4.75;;
43150;SDS011;28755;51.478;5.702;2023-10-08T05:22:13;17.20;;;4.90;;
43150;SDS011;28755;51.478;5.702;2023-10-08T05:24:44;9.27;;;5.18;;
43150;SDS011;28755;51.478;5.702;2023-10-08T05:27:31;12.23;;;5.20;;
43150;SDS011;28755;51.478;5.702;2023-10-08T05:30:28;12.95;;;4.93;;
43150;SDS011;28755;51.478;5.702;2023-10-08T05:33:18;12.20;;;5.15;;
43150;SDS011;28755;51.478;5.702;2023-10-08T05:35:50;11.88;;;5.13;;
43150;SDS011;28755;51.478;5.702;2023-10-08T05:38:22;10.75;;;5.20;;
43150;SDS011;28755;51.478;5.702;2023-10-08T05:40:52;13.23;;;5.00;;
43150;SDS011;28755;51.478;5.702;2023-10-08T05:43:27;14.93;;;5.55;;
43150;SDS011;28755;51.478;5.702;2023-10-08T05:46:02;15.57;;;5.10;;
43150;SDS011;28755;51.478;5.702;2023-10-08T05:49:04;15.07;;;5.03;;
43150;SDS011;28755;51.478;5.702;2023-10-08T05:51:33;12.25;;;4.97;;
43150;SDS011;28755;51.478;5.702;2023-10-08T05:54:29;12.63;;;4.90;;
43150;SDS011;28755;51.478;5.702;2023-10-08T05:59:43;9.77;;;5.03;;
43150;SDS011;28755;51.478;5.702;2023-10-08T06:02:23;16.02;;;5.63;;
43150;SDS011;28755;51.478;5.702;2023-10-08T06:04:59;13.05;;;5.15;;
43150;SDS011;28755;51.478;5.702;2023-10-08T06:07:40;12.80;;;5.00;;
43150;SDS011;28755;51.478;5.702;2023-10-08T06:10:30;11.68;;;5.05;;
43150;SDS011;28755;51.478;5.702;2023-10-08T06:13:07;17.92;;;5.63;;
43150;SDS011;28755;51.478;5.702;2023-10-08T06:15:38;16.25;;;5.53;;
43150;SDS011;28755;51.478;5.702;2023-10-08T06:18:30;10.98;;;5.22;;
43150;SDS011;28755;51.478;5.702;2023-10-08T06:21:03;11.80;;;4.78;;
43150;SDS011;28755;51.478;5.702;2023-10-08T06:23:33;16.33;;;5.80;;
43150;SDS011;28755;51.478;5.702;2023-10-08T06:26:00;13.27;;;5.78;;
43150;SDS011;28755;51.478;5.702;2023-10-08T06:28:36;10.85;;;5.10;;
43150;SDS011;28755;51.478;5.702;2023-10-08T06:31:03;16.10;;;5.25;;
43150;SDS011;28755;51.478;5.702;2023-10-08T06:33:37;9.20;;;4.60;;
43150;SDS011;28755;51.478;5.702;2023-10-08T06:36:06;9.05;;;4.90;;
43150;SDS011;28755;51.478;5.702;2023-10-08T06:38:42;12.13;;;5.30;;
43150;SDS011;28755;51.478;5.702;2023-10-08T06:41:09;14.88;;;5.93;;
43150;SDS011;28755;51.478;5.702;2023-10-08T06:43:39;12.70;;;5.53;;
43150;SDS011;28755;51.478;5.702;2023-10-08T06:46:10;11.77;;;5.32;;
43150;SDS011;28755;51.478;5.702;2023-10-08T06:48:37;15.00;;;5.68;;
43150;SDS011;28755;51.478;5.702;2023-10-08T06:51:07;11.82;;;5.35;;
43150;SDS011;28755;51.478;5.702;2023-10-08T06:53:38;12.73;;;5.65;;
43150;SDS011;28755;51.478;5.702;2023-10-08T06:56:07;12.52;;;6.00;;
43150;SDS011;28755;51.478;5.702;2023-10-08T06:58:36;15.88;;;5.43;;
43150;SDS011;28755;51.478;5.702;2023-10-08T07:01:01;16.60;;;5.80;;
43150;SDS011;28755;51.478;5.702;2023-10-08T07:03:30;11.25;;;5.72;;
43150;SDS011;28755;51.478;5.702;2023-10-08T07:05:58;18.60;;;5.65;;
43150;SDS011;28755;51.478;5.702;2023-10-08T07:08:27;14.68;;;6.00;;
43150;SDS011;28755;51.478;5.702;2023-10-08T07:10:56;11.57;;;5.82;;
43150;SDS011;28755;51.478;5.702;2023-10-08T07:13:23;12.00;;;5.60;;
43150;SDS011;28755;51.478;5.702;2023-10-08T07:15:49;17.48;;;6.05;;
43150;SDS011;28755;51.478;5.702;2023-10-08T07:18:16;15.02;;;5.60;;
43150;SDS011;28755;51.478;5.702;2023-10-08T07:20:54;12.15;;;5.95;;
43150;SDS011;28755;51.478;5.702;2023-10-08T07:23:25;14.48;;;5.63;;
43150;SDS011;28755;51.478;5.702;2023-10-08T07:28:35;16.52;;;6.35;;
43150;SDS011;28755;51.478;5.702;2023-10-08T07:31:14;15.77;;;5.85;;
43150;SDS011;28755;51.478;5.702;2023-10-08T07:33:46;17.33;;;6.43;;
43150;SDS011;28755;51.478;5.702;2023-10-08T07:36:27;17.35;;;5.78;;
43150;SDS011;28755;51.478;5.702;2023-10-08T07:38:55;11.40;;;6.05;;
43150;SDS011;28755;51.478;5.702;2023-10-08T07:41:21;11.00;;;5.78;;
43150;SDS011;28755;51.478;5.702;2023-10-08T07:43:48;16.73;;;7.10;;
43150;SDS011;28755;51.478;5.702;2023-10-08T07:46:24;16.10;;;6.63;;
43150;SDS011;28755;51.478;5.702;2023-10-08T07:48:51;13.57;;;6.60;;
43150;SDS011;28755;51.478;5.702;2023-10-08T07:51:19;15.70;;;6.25;;
43150;SDS011;28755;51.478;5.702;2023-10-08T07:53:48;18.95;;;7.15;;
43150;SDS011;28755;51.478;5.702;2023-10-08T07:56:14;19.15;;;7.22;;
43150;SDS011;28755;51.478;5.702;2023-10-08T07:58:40;16.52;;;6.70;;
43150;SDS011;28755;51.478;5.702;2023-10-08T08:01:08;20.95;;;7.80;;
43150;SDS011;28755;51.478;5.702;2023-10-08T08:03:35;21.38;;;6.93;;
43150;SDS011;28755;51.478;5.702;2023-10-08T08:06:05;18.27;;;7.43;;
43150;SDS011;28755;51.478;5.702;2023-10-08T08:08:32;18.35;;;8.10;;
43150;SDS011;28755;51.478;5.702;2023-10-08T08:10:59;19.42;;;7.82;;
43150;SDS011;28755;51.478;5.702;2023-10-08T08:15:54;16.50;;;8.13;;
43150;SDS011;28755;51.478;5.702;2023-10-08T08:18:24;16.27;;;8.15;;
43150;SDS011;28755;51.478;5.702;2023-10-08T08:20:50;21.80;;;8.90;;
43150;SDS011;28755;51.478;5.702;2023-10-08T08:23:16;21.77;;;8.95;;
43150;SDS011;28755;51.478;5.702;2023-10-08T08:25:42;18.77;;;8.68;;
43150;SDS011;28755;51.478;5.702;2023-10-08T08:28:14;18.10;;;8.83;;
43150;SDS011;28755;51.478;5.702;2023-10-08T08:30:43;21.20;;;10.15;;
43150;SDS011;28755;51.478;5.702;2023-10-08T08:33:12;22.55;;;10.05;;
43150;SDS011;28755;51.478;5.702;2023-10-08T08:35:38;23.38;;;9.65;;
43150;SDS011;28755;51.478;5.702;2023-10-08T08:38:04;35.00;;;10.35;;
43150;SDS011;28755;51.478;5.702;2023-10-08T08:40:30;29.40;;;9.63;;
43150;SDS011;28755;51.478;5.702;2023-10-08T08:42:57;26.23;;;9.98;;
43150;SDS011;28755;51.478;5.702;2023-10-08T08:45:27;28.73;;;10.13;;
43150;SDS011;28755;51.478;5.702;2023-10-08T08:47:56;28.92;;;10.52;;
43150;SDS011;28755;51.478;5.702;2023-10-08T08:50:22;26.73;;;9.68;;
43150;SDS011;28755;51.478;5.702;2023-10-08T08:52:48;28.60;;;11.05;;
43150;SDS011;28755;51.478;5.702;2023-10-08T08:55:16;28.65;;;10.93;;
43150;SDS011;28755;51.478;5.702;2023-10-08T08:57:42;23.02;;;11.07;;
43150;SDS011;28755;51.478;5.702;2023-10-08T09:00:13;24.25;;;11.38;;
43150;SDS011;28755;51.478;5.702;2023-10-08T09:02:39;29.63;;;11.98;;
43150;SDS011;28755;51.478;5.702;2023-10-08T09:05:06;24.60;;;11.73;;
43150;SDS011;28755;51.478;5.702;2023-10-08T09:10:28;22.40;;;10.80;;
43150;SDS011;28755;51.478;5.702;2023-10-08T09:12:55;26.60;;;11.18;;
43150;SDS011;28755;51.478;5.702;2023-10-08T09:15:24;25.88;;;11.40;;
43150;SDS011;28755;51.478;5.702;2023-10-08T09:17:52;26.75;;;11.68;;
43150;SDS011;28755;51.478;5.702;2023-10-08T09:20:19;32.35;;;13.00;;
43150;SDS011;28755;51.478;5.702;2023-10-08T09:22:45;27.55;;;13.55;;
43150;SDS011;28755;51.478;5.702;2023-10-08T09:25:15;43.47;;;15.40;;
43150;SDS011;28755;51.478;5.702;2023-10-08T09:27:54;40.45;;;15.75;;
43150;SDS011;28755;51.478;5.702;2023-10-08T09:30:20;37.08;;;14.35;;
43150;SDS011;28755;51.478;5.702;2023-10-08T09:32:47;36.92;;;14.30;;
43150;SDS011;28755;51.478;5.702;2023-10-08T09:35:14;33.10;;;14.02;;
43150;SDS011;28755;51.478;5.702;2023-10-08T09:37:41;30.25;;;14.45;;
43150;SDS011;28755;51.478;5.702;2023-10-08T09:40:07;35.63;;;14.73;;
43150;SDS011;28755;51.478;5.702;2023-10-08T09:42:36;34.00;;;14.30;;
43150;SDS011;28755;51.478;5.702;2023-10-08T09:45:03;27.08;;;14.43;;
43150;SDS011;28755;51.478;5.702;2023-10-08T09:47:31;30.63;;;14.70;;
43150;SDS011;28755;51.478;5.702;2023-10-08T09:50:04;33.22;;;14.73;;
43150;SDS011;28755;51.478;5.702;2023-10-08T09:52:34;29.15;;;13.70;;
43150;SDS011;28755;51.478;5.702;2023-10-08T09:55:07;34.80;;;14.70;;
43150;SDS011;28755;51.478;5.702;2023-10-08T09:57:35;27.88;;;14.23;;
43150;SDS011;28755;51.478;5.702;2023-10-08T10:00:02;28.92;;;13.45;;
43150;SDS011;28755;51.478;5.702;2023-10-08T10:02:30;28.45;;;12.30;;
43150;SDS011;28755;51.478;5.702;2023-10-08T10:04:57;31.23;;;13.75;;
43150;SDS011;28755;51.478;5.702;2023-10-08T10:07:23;29.90;;;13.77;;
43150;SDS011;28755;51.478;5.702;2023-10-08T10:09:51;38.05;;;13.43;;
43150;SDS011;28755;51.478;5.702;2023-10-08T10:12:20;27.98;;;13.32;;
43150;SDS011;28755;51.478;5.702;2023-10-08T10:14:51;29.00;;;13.35;;
43150;SDS011;28755;51.478;5.702;2023-10-08T10:17:20;26.05;;;13.45;;
43150;SDS011;28755;51.478;5.702;2023-10-08T10:20:00;22.80;;;12.38;;
43150;SDS011;28755;51.478;5.702;2023-10-08T10:24:54;31.05;;;13.18;;
43150;SDS011;28755;51.478;5.702;2023-10-08T10:27:21;23.17;;;12.50;;
43150;SDS011;28755;51.478;5.702;2023-10-08T10:29:47;24.00;;;13.93;;
43150;SDS011;28755;51.478;5.702;2023-10-08T10:32:13;21.55;;;13.07;;
43150;SDS011;28755;51.478;5.702;2023-10-08T10:34:41;22.98;;;12.30;;
43150;SDS011;28755;51.478;5.702;2023-10-08T10:37:07;26.50;;;12.38;;
43150;SDS011;28755;51.478;5.702;2023-10-08T10:39:54;28.67;;;13.00;;
43150;SDS011;28755;51.478;5.702;2023-10-08T10:42:24;22.13;;;12.15;;
43150;SDS011;28755;51.478;5.702;2023-10-08T10:44:51;22.92;;;12.15;;
43150;SDS011;28755;51.478;5.702;2023-10-08T10:47:18;24.10;;;12.98;;
43150;SDS011;28755;51.478;5.702;2023-10-08T10:49:51;24.42;;;11.95;;
43150;SDS011;28755;51.478;5.702;2023-10-08T10:52:22;23.13;;;12.60;;
43150;SDS011;28755;51.478;5.702;2023-10-08T10:55:09;24.85;;;12.65;;
43150;SDS011;28755;51.478;5.702;2023-10-08T10:57:41;24.98;;;12.43;;
43150;SDS011;28755;51.478;5.702;2023-10-08T11:00:36;19.08;;;11.75;;
43150;SDS011;28755;51.478;5.702;2023-10-08T11:03:03;22.20;;;12.10;;
43150;SDS011;28755;51.478;5.702;2023-10-08T11:05:35;20.25;;;11.82;;
43150;SDS011;28755;51.478;5.702;2023-10-08T11:08:04;24.23;;;12.38;;
43150;SDS011;28755;51.478;5.702;2023-10-08T11:10:36;18.00;;;10.63;;
43150;SDS011;28755;51.478;5.702;2023-10-08T11:13:04;22.90;;;10.93;;
43150;SDS011;28755;51.478;5.702;2023-10-08T11:15:43;22.42;;;11.23;;
43150;SDS011;28755;51.478;5.702;2023-10-08T11:18:14;25.17;;;11.50;;
43150;SDS011;28755;51.478;5.702;2023-10-08T11:20:42;20.75;;;10.85;;
43150;SDS011;28755;51.478;5.702;2023-10-08T11:23:11;25.13;;;11.00;;
43150;SDS011;28755;51.478;5.702;2023-10-08T11:25:59;23.92;;;10.75;;
43150;SDS011;28755;51.478;5.702;2023-10-08T11:28:37;24.10;;;11.55;;
43150;SDS011;28755;51.478;5.702;2023-10-08T11:31:07;18.27;;;9.90;;
43150;SDS011;28755;51.478;5.702;2023-10-08T11:33:39;28.95;;;10.57;;
43150;SDS011;28755;51.478;5.702;2023-10-08T11:36:06;21.23;;;12.75;;
43150;SDS011;28755;51.478;5.702;2023-10-08T11:38:43;18.27;;;11.95;;
43150;SDS011;28755;51.478;5.702;2023-10-08T11:41:13;22.17;;;13.07;;
43150;SDS011;28755;51.478;5.702;2023-10-08T11:43:49;23.70;;;12.85;;
43150;SDS011;28755;51.478;5.702;2023-10-08T11:46:19;26.40;;;12.63;;
43150;SDS011;28755;51.478;5.702;2023-10-08T11:48:51;25.42;;;15.98;;
43150;SDS011;28755;51.478;5.702;2023-10-08T11:51:17;25.75;;;14.48;;
43150;SDS011;28755;51.478;5.702;2023-10-08T11:53:43;21.75;;;13.20;;
43150;SDS011;28755;51.478;5.702;2023-10-08T11:56:12;23.55;;;13.00;;
43150;SDS011;28755;51.478;5.702;2023-10-08T11:58:40;25.02;;;13.82;;
43150;SDS011;28755;51.478;5.702;2023-10-08T12:01:09;25.15;;;15.27;;
43150;SDS011;28755;51.478;5.702;2023-10-08T12:03:40;32.00;;;13.50;;
43150;SDS011;28755;51.478;5.702;2023-10-08T12:06:06;22.85;;;14.20;;
43150;SDS011;28755;51.478;5.702;2023-10-08T12:08:33;26.95;;;13.40;;
43150;SDS011;28755;51.478;5.702;2023-10-08T12:11:04;29.52;;;13.60;;
43150;SDS011;28755;51.478;5.702;2023-10-08T12:13:36;24.38;;;12.90;;
43150;SDS011;28755;51.478;5.702;2023-10-08T12:16:10;26.15;;;13.77;;
43150;SDS011;28755;51.478;5.702;2023-10-08T12:18:43;23.60;;;13.73;;
43150;SDS011;28755;51.478;5.702;2023-10-08T12:21:19;28.42;;;13.98;;
43150;SDS011;28755;51.478;5.702;2023-10-08T12:23:45;22.08;;;12.75;;
43150;SDS011;28755;51.478;5.702;2023-10-08T12:26:11;26.13;;;11.80;;
43150;SDS011;28755;51.478;5.702;2023-10-08T12:28:41;28.10;;;14.07;;
43150;SDS011;28755;51.478;5.702;2023-10-08T12:31:13;30.25;;;14.35;;
43150;SDS011;28755;51.478;5.702;2023-10-08T12:33:47;24.02;;;13.05;;
43150;SDS011;28755;51.478;5.702;2023-10-08T12:36:13;30.23;;;13.63;;
43150;SDS011;28755;51.478;5.702;2023-10-08T12:38:41;33.17;;;14.15;;
43150;SDS011;28755;51.478;5.702;2023-10-08T12:41:08;26.58;;;13.60;;
43150;SDS011;28755;51.478;5.702;2023-10-08T12:43:38;26.10;;;13.05;;
43150;SDS011;28755;51.478;5.702;2023-10-08T12:46:07;26.83;;;13.80;;
43150;SDS011;28755;51.478;5.702;2023-10-08T12:48:35;26.05;;;13.32;;
43150;SDS011;28755;51.478;5.702;2023-10-08T12:51:02;32.72;;;13.40;;
43150;SDS011;28755;51.478;5.702;2023-10-08T12:53:30;27.08;;;12.30;;
43150;SDS011;28755;51.478;5.702;2023-10-08T12:55:59;29.60;;;12.88;;
43150;SDS011;28755;51.478;5.702;2023-10-08T12:58:30;30.75;;;13.18;;
43150;SDS011;28755;51.478;5.702;2023-10-08T13:01:03;27.45;;;13.15;;
43150;SDS011;28755;51.478;5.702;2023-10-08T13:03:28;27.52;;;13.65;;
43150;SDS011;28755;51.478;5.702;2023-10-08T13:05:58;28.90;;;13.33;;
43150;SDS011;28755;51.478;5.702;2023-10-08T13:08:32;27.27;;;13.25;;
43150;SDS011;28755;51.478;5.702;2023-10-08T13:11:00;29.35;;;13.15;;
43150;SDS011;28755;51.478;5.702;2023-10-08T13:13:32;25.83;;;12.77;;
43150;SDS011;28755;51.478;5.702;2023-10-08T13:15:58;29.45;;;13.30;;
43150;SDS011;28755;51.478;5.702;2023-10-08T13:18:25;33.30;;;14.45;;
43150;SDS011;28755;51.478;5.702;2023-10-08T13:20:54;29.63;;;13.73;;
43150;SDS011;28755;51.478;5.702;2023-10-08T13:23:20;26.33;;;13.10;;
43150;SDS011;28755;51.478;5.702;2023-10-08T13:25:48;26.45;;;13.52;;
43150;SDS011;28755;51.478;5.702;2023-10-08T13:28:19;23.23;;;13.75;;
43150;SDS011;28755;51.478;5.702;2023-10-08T13:30:46;29.25;;;13.77;;
43150;SDS011;28755;51.478;5.702;2023-10-08T13:33:12;30.35;;;14.68;;
43150;SDS011;28755;51.478;5.702;2023-10-08T13:35:38;28.10;;;14.10;;
43150;SDS011;28755;51.478;5.702;2023-10-08T13:38:03;26.58;;;14.82;;
43150;SDS011;28755;51.478;5.702;2023-10-08T13:40:34;28.98;;;13.80;;
43150;SDS011;28755;51.478;5.702;2023-10-08T13:43:05;24.77;;;13.65;;
43150;SDS011;28755;51.478;5.702;2023-10-08T13:45:31;27.17;;;14.60;;
43150;SDS011;28755;51.478;5.702;2023-10-08T13:48:02;28.77;;;13.80;;
43150;SDS011;28755;51.478;5.702;2023-10-08T13:50:30;30.38;;;14.98;;
43150;SDS011;28755;51.478;5.702;2023-10-08T13:52:56;33.00;;;15.52;;
43150;SDS011;28755;51.478;5.702;2023-10-08T13:55:23;33.55;;;15.43;;
43150;SDS011;28755;51.478;5.702;2023-10-08T13:57:50;32.70;;;15.13;;
43150;SDS011;28755;51.478;5.702;2023-10-08T14:00:16;26.98;;;15.05;;
43150;SDS011;28755;51.478;5.702;2023-10-08T14:02:50;31.50;;;15.20;;
43150;SDS011;28755;51.478;5.702;2023-10-08T14:05:17;32.78;;;15.65;;
43150;SDS011;28755;51.478;5.702;2023-10-08T14:07:48;30.70;;;16.35;;
43150;SDS011;28755;51.478;5.702;2023-10-08T14:10:14;30.27;;;16.13;;
43150;SDS011;28755;51.478;5.702;2023-10-08T14:12:46;40.37;;;16.33;;
43150;SDS011;28755;51.478;5.702;2023-10-08T14:15:15;28.23;;;16.17;;
43150;SDS011;28755;51.478;5.702;2023-10-08T14:17:42;33.58;;;16.65;;
43150;SDS011;28755;51.478;5.702;2023-10-08T14:20:13;30.08;;;16.35;;
43150;SDS011;28755;51.478;5.702;2023-10-08T14:22:39;33.70;;;16.80;;
43150;SDS011;28755;51.478;5.702;2023-10-08T14:25:09;29.90;;;16.13;;
43150;SDS011;28755;51.478;5.702;2023-10-08T14:27:40;33.83;;;17.27;;
43150;SDS011;28755;51.478;5.702;2023-10-08T14:30:06;36.03;;;17.02;;
43150;SDS011;28755;51.478;5.702;2023-10-08T14:32:40;35.33;;;17.90;;
43150;SDS011;28755;51.478;5.702;2023-10-08T14:35:11;35.30;;;18.00;;
43150;SDS011;28755;51.478;5.702;2023-10-08T14:37:55;37.53;;;17.02;;
43150;SDS011;28755;51.478;5.702;2023-10-08T14:40:40;34.10;;;17.65;;
43150;SDS011;28755;51.478;5.702;2023-10-08T14:43:24;32.67;;;17.77;;
43150;SDS011;28755;51.478;5.702;2023-10-08T14:45:49;35.17;;;17.52;;
43150;SDS011;28755;51.478;5.702;2023-10-08T14:48:17;31.77;;;17.85;;
43150;SDS011;28755;51.478;5.702;2023-10-08T14:50:43;36.40;;;18.88;;
43150;SDS011;28755;51.478;5.702;2023-10-08T14:53:08;36.20;;;18.15;;
43150;SDS011;28755;51.478;5.702;2023-10-08T14:55:37;35.92;;;18.75;;
43150;SDS011;28755;51.478;5.702;2023-10-08T14:58:04;40.13;;;18.48;;
43150;SDS011;28755;51.478;5.702;2023-10-08T15:00:34;32.15;;;18.52;;
43150;SDS011;28755;51.478;5.702;2023-10-08T15:03:03;36.65;;;16.55;;